createdAt,value
2019-04-28T00:00:06.641Z,67.10
2019-04-28T00:02:40.840Z,66.64
2019-04-28T00:05:12.726Z,66.80
2019-04-28T00:07:44.656Z,66.72
2019-04-28T00:10:16.551Z,66.54
2019-04-28T00:12:48.518Z,66.69
2019-04-28T00:15:20.936Z,66.60
2019-04-28T00:17:53.129Z,66.76
2019-04-28T00:20:36.025Z,66.73
2019-04-28T00:23:18.297Z,66.93
2019-04-28T00:26:01.583Z,67.41
2019-04-28T00:28:34.598Z,67.67
2019-04-28T00:31:06.773Z,67.62
2019-04-28T00:33:38.672Z,67.62
2019-04-28T00:36:11.564Z,67.41
2019-04-28T00:38:43.489Z,67.78
2019-04-28T00:41:15.386Z,67.74
2019-04-28T00:43:47.278Z,67.50
2019-04-28T00:46:21.203Z,67.89
2019-04-28T00:48:53.258Z,67.60
2019-04-28T00:51:25.155Z,67.70
2019-04-28T00:53:57.042Z,68.04
2019-04-28T00:56:28.929Z,68.50
2019-04-28T00:59:01.661Z,68.74
2019-04-28T01:01:48.568Z,68.82
2019-04-28T01:04:21.947Z,68.63
2019-04-28T01:06:54.296Z,68.98
2019-04-28T01:09:26.373Z,69.04
2019-04-28T01:11:58.246Z,68.90
2019-04-28T01:14:30.972Z,68.91
2019-04-28T01:17:09.859Z,68.71
2019-04-28T01:19:43.994Z,68.90
2019-04-28T01:22:20.136Z,68.83
2019-04-28T01:24:52.177Z,69.03
2019-04-28T01:27:50.581Z,69.20
2019-04-28T01:30:50.572Z,69.12
2019-04-28T01:33:56.543Z,68.96
2019-04-28T01:36:30.121Z,68.78
2019-04-28T01:39:02.097Z,68.88
2019-04-28T01:41:36.850Z,68.34
2019-04-28T01:44:10.210Z,68.28
2019-04-28T01:46:42.932Z,68.24
2019-04-28T01:49:14.921Z,68.25
2019-04-28T01:52:00.550Z,68.36
2019-04-28T01:54:32.221Z,68.25
2019-04-28T01:57:04.114Z,68.39
2019-04-28T01:59:35.939Z,68.81
2019-04-28T02:02:09.959Z,69.07
2019-04-28T02:04:41.625Z,69.29
2019-04-28T02:07:13.516Z,69.34
2019-04-28T02:09:45.429Z,68.99
2019-04-28T02:12:17.316Z,69.33
2019-04-28T02:14:52.156Z,69.12
2019-04-28T02:17:24.368Z,69.21
2019-04-28T02:19:56.365Z,69.21
2019-04-28T02:22:47.114Z,69.29
2019-04-28T02:25:19.576Z,69.24
2019-04-28T02:27:52.694Z,69.22
2019-04-28T02:30:40.971Z,69.00
2019-04-28T02:32:58.085Z,69.05
2019-04-28T02:35:31.490Z,69.50
2019-04-28T02:38:03.683Z,69.60
2019-04-28T02:40:35.561Z,69.02
2019-04-28T02:43:07.375Z,69.08
2019-04-28T02:45:41.281Z,69.15
2019-04-28T02:48:21.104Z,69.31
2019-04-28T02:51:01.048Z,69.71
2019-04-28T02:53:35.974Z,69.98
2019-04-28T02:56:07.798Z,69.86
2019-04-28T02:58:41.518Z,69.94
2019-04-28T03:01:22.793Z,69.92
2019-04-28T03:03:46.782Z,69.85
2019-04-28T03:06:20.726Z,69.62
2019-04-28T03:08:52.159Z,69.31
2019-04-28T03:11:24.373Z,69.11
2019-04-28T03:13:56.451Z,69.04
2019-04-28T03:16:30.026Z,69.19
2019-04-28T03:19:02.915Z,69.59
2019-04-28T03:21:34.937Z,69.67
2019-04-28T03:24:06.811Z,69.91
2019-04-28T03:26:52.401Z,69.94
2019-04-28T03:29:36.658Z,70.14
2019-04-28T03:32:32.334Z,69.86
2019-04-28T03:34:53.896Z,69.92
2019-04-28T03:37:24.589Z,70.12
2019-04-28T03:39:56.547Z,70.24
2019-04-28T03:42:31.153Z,70.43
2019-04-28T03:45:03.632Z,70.81
2019-04-28T03:47:35.519Z,70.81
2019-04-28T03:50:10.235Z,71.15
2019-04-28T03:52:41.636Z,71.31
2019-04-28T03:55:13.607Z,71.44
2019-04-28T03:57:45.477Z,71.49
2019-04-28T04:00:17.285Z,71.65
2019-04-28T04:02:50.770Z,71.62
2019-04-28T04:05:23.122Z,71.90
2019-04-28T04:07:55.012Z,71.81
2019-04-28T04:10:40.297Z,71.97
2019-04-28T04:13:16.278Z,72.00
2019-04-28T04:16:24.850Z,72.08
2019-04-28T04:19:00.522Z,72.36
2019-04-28T04:21:31.604Z,72.54
2019-04-28T04:24:03.620Z,72.20
2019-04-28T04:26:35.506Z,72.31
2019-04-28T04:29:07.377Z,72.46
2019-04-28T04:31:41.344Z,72.60
2019-04-28T04:34:12.771Z,72.71
2019-04-28T04:36:44.670Z,72.78
2019-04-28T04:39:16.455Z,73.09
2019-04-28T04:41:50.394Z,73.01
2019-04-28T04:44:21.900Z,73.19
2019-04-28T04:46:53.772Z,73.11
2019-04-28T04:49:25.646Z,73.35
2019-04-28T04:51:59.924Z,73.41
2019-04-28T04:54:36.577Z,73.43
2019-04-28T04:57:06.683Z,73.23
2019-04-28T04:59:40.112Z,73.19
2019-04-28T05:02:37.230Z,73.25
2019-04-28T05:05:22.219Z,73.32
2019-04-28T05:07:54.373Z,73.08
2019-04-28T05:10:26.403Z,73.14
2019-04-28T05:12:59.904Z,72.99
2019-04-28T05:15:31.795Z,73.06
2019-04-28T05:18:03.796Z,73.36
2019-04-28T05:20:35.607Z,73.16
2019-04-28T05:23:16.791Z,73.17
2019-04-28T05:25:49.723Z,73.00
2019-04-28T05:28:21.706Z,73.24
2019-04-28T05:30:53.645Z,73.28
2019-04-28T05:33:32.024Z,73.53
2019-04-28T05:36:03.155Z,73.68
2019-04-28T05:38:35.083Z,73.85
2019-04-28T05:41:06.975Z,73.63
2019-04-28T05:43:40.410Z,73.48
2019-04-28T05:46:12.480Z,73.24
2019-04-28T05:48:51.279Z,73.18
2019-04-28T05:51:24.602Z,73.26
2019-04-28T05:54:03.885Z,73.11
2019-04-28T05:56:43.199Z,73.42
2019-04-28T05:59:19.328Z,73.58
2019-04-28T06:02:02.353Z,73.34
2019-04-28T06:04:34.229Z,73.27
2019-04-28T06:07:13.653Z,73.06
2019-04-28T06:09:50.097Z,72.75
2019-04-28T06:12:22.246Z,72.62
2019-04-28T06:14:54.334Z,72.44
2019-04-28T06:17:26.363Z,71.99
2019-04-28T06:20:00.068Z,71.93
2019-04-28T06:22:31.775Z,71.99
2019-04-28T06:25:03.676Z,71.50
2019-04-28T06:27:35.604Z,71.57
2019-04-28T06:30:08.055Z,71.01
2019-04-28T06:32:39.945Z,70.74
2019-04-28T06:35:11.799Z,70.33
2019-04-28T06:37:43.674Z,70.28
2019-04-28T06:40:15.508Z,70.02
2019-04-28T06:42:47.412Z,69.43
2019-04-28T06:45:19.259Z,69.48
2019-04-28T06:47:51.816Z,69.35
2019-04-28T06:50:23.664Z,69.22
2019-04-28T06:52:55.474Z,69.11
2019-04-28T06:55:27.829Z,68.63
2019-04-28T06:57:59.732Z,68.72
2019-04-28T07:00:31.950Z,68.88
2019-04-28T07:03:04.154Z,68.60
2019-04-28T07:05:36.063Z,68.44
2019-04-28T07:08:07.951Z,68.52
2019-04-28T07:10:39.828Z,68.23
2019-04-28T07:13:11.757Z,68.13
2019-04-28T07:15:44.641Z,68.35
2019-04-28T07:18:16.539Z,68.90
2019-04-28T07:20:57.292Z,68.67
2019-04-28T07:23:29.312Z,68.66
2019-04-28T07:26:01.134Z,67.56
2019-04-28T07:28:32.997Z,67.05
2019-04-28T07:31:04.956Z,66.37
2019-04-28T07:33:36.853Z,66.21
2019-04-28T07:36:08.770Z,65.82
2019-04-28T07:38:40.657Z,65.65
2019-04-28T07:41:12.519Z,65.35
2019-04-28T07:43:44.399Z,65.33
2019-04-28T07:46:16.204Z,65.36
2019-04-28T07:48:48.090Z,65.00
2019-04-28T07:51:22.181Z,65.32
2019-04-28T07:53:57.880Z,65.28
2019-04-28T07:56:29.701Z,65.49
2019-04-28T07:59:01.722Z,65.86
2019-04-28T08:01:33.660Z,65.95
2019-04-28T08:04:05.961Z,66.05
2019-04-28T08:06:37.835Z,65.92
2019-04-28T08:09:13.096Z,65.99
2019-04-28T08:11:47.226Z,66.50
2019-04-28T08:14:19.833Z,66.51
2019-04-28T08:16:53.210Z,66.66
2019-04-28T08:19:25.605Z,66.60
2019-04-28T08:21:57.410Z,67.10
2019-04-28T08:24:29.361Z,66.69
2019-04-28T08:27:01.241Z,66.06
2019-04-28T08:29:33.229Z,65.76
2019-04-28T08:32:24.623Z,65.23
2019-04-28T08:34:56.551Z,64.71
2019-04-28T08:37:28.337Z,64.67
2019-04-28T08:40:00.167Z,65.03
2019-04-28T08:42:32.010Z,64.63
2019-04-28T08:45:04.044Z,64.32
2019-04-28T08:47:36.101Z,64.81
2019-04-28T08:50:08.034Z,64.37
2019-04-28T08:52:39.981Z,64.91
2019-04-28T08:55:11.941Z,65.04
2019-04-28T08:57:45.631Z,65.20
2019-04-28T09:00:18.210Z,64.66
2019-04-28T09:02:50.102Z,64.72
2019-04-28T09:05:22.051Z,64.13
2019-04-28T09:07:53.972Z,64.28
2019-04-28T09:10:25.813Z,64.34
2019-04-28T09:12:57.700Z,64.37
2019-04-28T09:15:29.561Z,64.50
2019-04-28T09:18:02.708Z,64.35
2019-04-28T09:20:34.836Z,64.07
2019-04-28T09:23:06.712Z,63.59
2019-04-28T09:25:40.818Z,63.09
2019-04-28T09:28:14.507Z,63.40
2019-04-28T09:30:46.659Z,62.41
2019-04-28T09:33:19.159Z,62.79
2019-04-28T09:35:52.056Z,62.91
2019-04-28T09:38:24.715Z,62.44
2019-04-28T09:40:56.841Z,62.26
2019-04-28T09:43:46.581Z,61.62
2019-04-28T09:46:27.937Z,61.62
2019-04-28T09:49:00.048Z,61.38
2019-04-28T09:51:33.600Z,61.16
2019-04-28T09:54:05.747Z,60.98
2019-04-28T09:56:37.610Z,60.63
2019-04-28T09:59:09.481Z,59.83
2019-04-28T10:01:41.357Z,59.41
2019-04-28T10:04:13.226Z,59.20
2019-04-28T10:06:45.086Z,59.29
2019-04-28T10:09:16.890Z,59.51
2019-04-28T10:11:48.763Z,59.05
2019-04-28T10:14:20.727Z,58.45
2019-04-28T10:16:52.581Z,58.31
2019-04-28T10:19:24.426Z,58.29
2019-04-28T10:21:56.285Z,58.92
2019-04-28T10:24:28.255Z,58.92
2019-04-28T10:27:00.370Z,58.97
2019-04-28T10:29:33.286Z,59.91
2019-04-28T10:32:05.148Z,59.42
2019-04-28T10:34:37.022Z,59.83
2019-04-28T10:37:08.895Z,59.95
2019-04-28T10:39:55.574Z,59.83
2019-04-28T10:42:27.433Z,59.40
2019-04-28T10:45:00.213Z,58.81
2019-04-28T10:47:32.575Z,58.81
2019-04-28T10:50:04.825Z,58.67
2019-04-28T10:52:36.840Z,57.93
2019-04-28T10:55:08.709Z,58.34
2019-04-28T10:57:40.589Z,57.89
2019-04-28T11:00:13.386Z,57.72
2019-04-28T11:02:45.316Z,57.63
2019-04-28T11:05:31.750Z,57.49
2019-04-28T11:08:05.852Z,56.95
2019-04-28T11:10:37.745Z,56.50
2019-04-28T11:13:11.125Z,56.85
2019-04-28T11:15:43.193Z,57.15
2019-04-28T11:18:15.916Z,56.66
2019-04-28T11:20:47.759Z,57.01
2019-04-28T11:23:19.763Z,56.57
2019-04-28T11:25:52.450Z,56.50
2019-04-28T11:28:24.389Z,56.64
2019-04-28T11:30:56.423Z,57.15
2019-04-28T11:33:52.686Z,56.60
2019-04-28T11:36:24.532Z,56.56
2019-04-28T11:38:56.399Z,56.43
2019-04-28T11:41:28.388Z,56.65
2019-04-28T11:44:00.196Z,56.77
2019-04-28T11:46:31.979Z,56.85
2019-04-28T11:49:03.776Z,56.08
2019-04-28T11:51:35.545Z,55.55
2019-04-28T11:54:07.420Z,55.66
2019-04-28T11:56:41.523Z,55.50
2019-04-28T11:59:12.875Z,55.73
2019-04-28T12:01:44.659Z,55.42
2019-04-28T12:04:17.907Z,55.84
2019-04-28T12:06:49.783Z,55.82
2019-04-28T12:09:43.910Z,55.94
2019-04-28T12:12:41.436Z,55.52
2019-04-28T12:15:32.148Z,55.65
2019-04-28T12:18:37.836Z,55.00
2019-04-28T12:21:10.677Z,55.00
2019-04-28T12:23:42.530Z,54.91
2019-04-28T12:26:14.336Z,55.33
2019-04-28T12:28:46.184Z,55.27
2019-04-28T12:31:18.141Z,55.42
2019-04-28T12:33:50.251Z,55.67
2019-04-28T12:36:22.201Z,55.85
2019-04-28T12:38:54.313Z,56.29
2019-04-28T12:41:26.175Z,56.64
2019-04-28T12:43:58.093Z,56.53
2019-04-28T12:46:29.953Z,56.37
2019-04-28T12:49:06.074Z,56.66
2019-04-28T12:51:37.894Z,56.24
2019-04-28T12:54:11.447Z,55.83
2019-04-28T12:56:43.313Z,54.74
2019-04-28T12:59:21.951Z,55.25
2019-04-28T13:02:05.025Z,55.15
2019-04-28T13:04:43.195Z,54.70
2019-04-28T13:07:15.468Z,55.09
2019-04-28T13:09:48.611Z,55.09
2019-04-28T13:12:21.778Z,55.31
2019-04-28T13:14:54.555Z,54.90
2019-04-28T13:17:27.092Z,54.88
2019-04-28T13:20:00.722Z,54.93
2019-04-28T13:22:34.028Z,55.43
2019-04-28T13:25:07.347Z,54.70
2019-04-28T13:27:40.910Z,55.16
2019-04-28T13:30:13.762Z,54.81
2019-04-28T13:32:46.426Z,55.05
2019-04-28T13:35:21.598Z,54.54
2019-04-28T13:37:54.124Z,54.48
2019-04-28T13:40:30.933Z,54.91
2019-04-28T13:43:03.430Z,55.49
2019-04-28T13:45:36.125Z,56.02
2019-04-28T13:48:08.168Z,56.28
2019-04-28T13:50:43.123Z,56.23
2019-04-28T13:53:16.187Z,56.25
2019-04-28T13:56:07.055Z,56.48
2019-04-28T13:59:02.932Z,56.26
2019-04-28T14:01:46.607Z,56.99
2019-04-28T14:04:31.096Z,57.39
2019-04-28T14:07:07.450Z,57.60
2019-04-28T14:09:39.397Z,57.22
2019-04-28T14:12:11.605Z,57.39
2019-04-28T14:14:43.803Z,57.73
2019-04-28T14:17:16.089Z,57.73
2019-04-28T14:19:48.093Z,57.68
2019-04-28T14:22:19.999Z,57.63
2019-04-28T14:24:52.142Z,56.10
2019-04-28T14:27:24.205Z,56.93
2019-04-28T14:29:56.088Z,56.93
2019-04-28T14:32:28.041Z,56.28
2019-04-28T14:35:00.083Z,56.71
2019-04-28T14:37:33.285Z,56.65
2019-04-28T14:40:05.998Z,56.15
2019-04-28T14:42:37.849Z,56.16
2019-04-28T14:45:10.021Z,56.92
2019-04-28T14:47:42.035Z,56.77
2019-04-28T14:50:14.195Z,56.76
2019-04-28T14:52:46.101Z,57.85
2019-04-28T14:55:19.321Z,58.60
2019-04-28T14:57:52.535Z,60.07
2019-04-28T15:00:30.666Z,60.07
2019-04-28T15:03:06.779Z,62.41
2019-04-28T15:05:57.021Z,62.41
2019-04-28T15:08:46.342Z,62.52
2019-04-28T15:11:43.258Z,62.63
2019-04-28T15:14:15.126Z,65.17
2019-04-28T15:16:46.977Z,65.13
2019-04-28T15:19:18.976Z,66.06
2019-04-28T15:21:51.065Z,65.16
2019-04-28T15:24:23.271Z,67.54
2019-04-28T15:26:56.284Z,67.76
2019-04-28T15:29:28.262Z,65.97
2019-04-28T15:32:00.206Z,68.25
2019-04-28T15:34:32.196Z,69.60
2019-04-28T15:37:10.176Z,69.37
2019-04-28T15:39:37.691Z,68.96
2019-04-28T15:42:09.610Z,69.67
2019-04-28T15:44:41.569Z,70.65
2019-04-28T15:47:13.732Z,71.83
2019-04-28T15:49:45.912Z,70.59
2019-04-28T15:52:17.840Z,70.62
2019-04-28T15:54:49.725Z,71.80
2019-04-28T15:57:21.949Z,71.92
2019-04-28T15:59:54.198Z,71.82
2019-04-28T16:02:27.926Z,72.04
2019-04-28T16:05:00.164Z,71.16
2019-04-28T16:07:32.031Z,72.77
2019-04-28T16:10:03.952Z,72.66
2019-04-28T16:12:35.842Z,73.22
2019-04-28T16:15:07.841Z,73.75
2019-04-28T16:17:39.716Z,74.32
2019-04-28T16:20:11.715Z,74.55
2019-04-28T16:22:43.832Z,75.54
2019-04-28T16:25:15.648Z,75.29
2019-04-28T16:27:47.541Z,75.17
2019-04-28T16:30:19.428Z,75.71
2019-04-28T16:32:51.318Z,75.52
2019-04-28T16:35:23.202Z,76.20
2019-04-28T16:37:55.288Z,76.35
2019-04-28T16:40:33.399Z,76.56
2019-04-28T16:43:14.808Z,76.99
2019-04-28T16:45:46.684Z,77.87
2019-04-28T16:48:18.573Z,78.24
2019-04-28T16:50:50.365Z,78.60
2019-04-28T16:53:22.560Z,78.84
2019-04-28T16:56:16.452Z,78.88
2019-04-28T16:59:06.030Z,78.80
2019-04-28T17:02:09.262Z,79.12
2019-04-28T17:04:41.328Z,79.10
2019-04-28T17:07:13.228Z,78.79
2019-04-28T17:09:45.328Z,79.75
2019-04-28T17:12:17.243Z,79.22
2019-04-28T17:14:49.257Z,79.90
2019-04-28T17:17:21.150Z,79.75
2019-04-28T17:19:53.077Z,81.00
2019-04-28T17:22:24.989Z,81.02
2019-04-28T17:24:56.861Z,80.83
2019-04-28T17:27:28.740Z,80.68
2019-04-28T17:30:00.625Z,80.88
2019-04-28T17:32:32.827Z,81.35
2019-04-28T17:35:04.995Z,81.10
2019-04-28T17:37:36.906Z,81.09
2019-04-28T17:40:08.921Z,81.27
2019-04-28T17:42:40.852Z,81.36
2019-04-28T17:45:12.876Z,81.17
2019-04-28T17:47:45.508Z,80.68
2019-04-28T17:50:19.038Z,81.37
2019-04-28T17:52:50.905Z,81.38
2019-04-28T17:55:23.103Z,82.13
2019-04-28T17:57:55.025Z,81.86
2019-04-28T18:00:39.444Z,82.33
2019-04-28T18:03:36.042Z,82.22
2019-04-28T18:06:17.871Z,81.94
2019-04-28T18:08:47.928Z,82.24
2019-04-28T18:11:19.851Z,81.76
2019-04-28T18:13:51.972Z,81.73
2019-04-28T18:16:44.231Z,82.32
2019-04-28T18:19:16.339Z,82.16
2019-04-28T18:21:48.282Z,81.74
2019-04-28T18:24:20.179Z,82.12
2019-04-28T18:26:52.508Z,82.26
2019-04-28T18:29:24.423Z,82.77
2019-04-28T18:32:13.828Z,82.76
2019-04-28T18:34:53.982Z,83.18
2019-04-28T18:37:45.031Z,83.11
2019-04-28T18:40:39.273Z,82.70
2019-04-28T18:43:21.734Z,82.95
2019-04-28T18:45:53.898Z,83.29
2019-04-28T18:48:26.678Z,82.63
2019-04-28T18:50:58.607Z,82.73
2019-04-28T18:53:30.497Z,83.29
2019-04-28T18:56:02.324Z,82.98
2019-04-28T18:58:34.300Z,82.73
2019-04-28T19:01:19.133Z,82.47
2019-04-28T19:03:51.017Z,82.63
2019-04-28T19:06:23.286Z,82.29
2019-04-28T19:09:00.239Z,82.47
2019-04-28T19:11:41.317Z,82.97
2019-04-28T19:14:18.433Z,82.59
2019-04-28T19:17:04.829Z,82.09
2019-04-28T19:19:38.928Z,82.81
2019-04-28T19:22:11.185Z,83.06
2019-04-28T19:24:43.164Z,82.66
2019-04-28T19:27:15.160Z,83.08
2019-04-28T19:29:47.057Z,83.92
2019-04-28T19:32:19.126Z,83.71
2019-04-28T19:34:51.182Z,83.98
2019-04-28T19:37:23.277Z,83.70
2019-04-28T19:39:55.351Z,83.77
2019-04-28T19:42:27.676Z,83.66
2019-04-28T19:44:59.679Z,83.75
2019-04-28T19:47:31.602Z,83.50
2019-04-28T19:50:03.626Z,83.58
2019-04-28T19:52:39.871Z,83.81
2019-04-28T19:55:18.228Z,83.42
2019-04-28T19:58:11.781Z,83.55
2019-04-28T20:00:56.316Z,83.46
2019-04-28T20:03:28.332Z,83.85
2019-04-28T20:06:00.239Z,84.05
2019-04-28T20:08:32.179Z,83.58
2019-04-28T20:11:04.080Z,84.01
2019-04-28T20:13:36.005Z,84.30
2019-04-28T20:16:08.015Z,84.16
2019-04-28T20:18:40.425Z,84.17
2019-04-28T20:21:12.361Z,84.13
2019-04-28T20:23:44.500Z,84.03
2019-04-28T20:26:16.509Z,84.33
2019-04-28T20:28:48.463Z,84.37
2019-04-28T20:31:20.413Z,84.49
2019-04-28T20:33:52.568Z,84.44
2019-04-28T20:36:46.403Z,84.04
2019-04-28T20:39:26.552Z,84.38
2019-04-28T20:42:17.635Z,84.09
2019-04-28T20:44:49.913Z,84.00
2019-04-28T20:47:22.119Z,84.59
2019-04-28T20:49:55.142Z,83.89
2019-04-28T20:52:27.095Z,84.39
2019-04-28T20:54:59.121Z,84.39
2019-04-28T20:57:31.115Z,84.43
2019-04-28T21:00:05.165Z,84.91
2019-04-28T21:02:38.672Z,85.17
2019-04-28T21:05:10.550Z,84.82
2019-04-28T21:07:42.541Z,84.91
2019-04-28T21:10:14.678Z,84.91
2019-04-28T21:12:46.868Z,84.67
2019-04-28T21:15:19.782Z,84.82
2019-04-28T21:17:51.689Z,84.74
2019-04-28T21:20:23.724Z,84.94
2019-04-28T21:22:56.062Z,84.76
2019-04-28T21:25:27.911Z,85.16
2019-04-28T21:28:00.015Z,84.56
2019-04-28T21:30:31.957Z,84.19
2019-04-28T21:33:03.938Z,85.33
2019-04-28T21:35:35.808Z,85.25
2019-04-28T21:38:07.683Z,84.64
2019-04-28T21:40:40.813Z,85.54
2019-04-28T21:43:31.581Z,84.95
2019-04-28T21:46:24.331Z,85.54
2019-04-28T21:49:05.272Z,85.15
2019-04-28T21:51:37.135Z,85.77
2019-04-28T21:54:09.021Z,85.86
2019-04-28T21:56:40.899Z,85.60
2019-04-28T21:59:12.794Z,85.60
2019-04-28T22:01:44.779Z,85.40
2019-04-28T22:04:16.636Z,85.42
2019-04-28T22:06:48.520Z,85.97
2019-04-28T22:09:21.430Z,85.30
2019-04-28T22:11:53.302Z,85.35
2019-04-28T22:14:25.169Z,85.69
2019-04-28T22:16:57.051Z,85.55
2019-04-28T22:19:28.935Z,85.62
2019-04-28T22:22:00.807Z,85.75
2019-04-28T22:24:51.794Z,86.23
2019-04-28T22:27:28.668Z,86.18
2019-04-28T22:30:00.530Z,85.65
2019-04-28T22:32:33.492Z,86.16
2019-04-28T22:35:05.582Z,86.00
2019-04-28T22:37:37.451Z,85.81
2019-04-28T22:40:13.439Z,85.27
2019-04-28T22:42:45.315Z,86.00
2019-04-28T22:45:17.375Z,85.65
2019-04-28T22:47:49.349Z,85.41
2019-04-28T22:50:40.245Z,85.66
2019-04-28T22:53:12.711Z,85.63
2019-04-28T22:55:52.685Z,85.90
2019-04-28T22:58:42.630Z,85.51
2019-04-28T23:01:21.606Z,85.75
2019-04-28T23:03:58.447Z,86.03
2019-04-28T23:06:30.321Z,86.08
2019-04-28T23:09:02.318Z,86.16
2019-04-28T23:11:35.713Z,86.15
2019-04-28T23:14:07.583Z,85.90
2019-04-28T23:16:39.393Z,85.71
2019-04-28T23:19:13.499Z,85.93
2019-04-28T23:22:10.289Z,85.90
2019-04-28T23:24:42.176Z,86.11
2019-04-28T23:27:14.042Z,86.20
2019-04-28T23:29:45.924Z,86.01
2019-04-28T23:32:17.795Z,85.86
2019-04-28T23:34:49.600Z,86.08
2019-04-28T23:37:21.424Z,85.90
2019-04-28T23:39:53.279Z,86.27
2019-04-28T23:42:48.833Z,86.30
2019-04-28T23:45:20.712Z,86.55
2019-04-28T23:47:53.494Z,86.81
2019-04-28T23:50:34.694Z,87.05
2019-04-28T23:53:09.914Z,87.46
2019-04-28T23:55:41.771Z,87.58
2019-04-28T23:58:14.659Z,88.06
